Time;durP1;ratioP1;P1;durP2;ratioP2;P2;SDS_P1;SDS_P2;PMS_P1;PMS_P2;Temp;Humidity;BMP_temperature;BMP_pressure;BME280_temperature;BME280_humidity;BME280_pressure;Samples;Min_cycle;Max_cycle;Signal;HPM_P1;HPM_P2
2023/10/14 00:01:36;;;;;;;;;;;;;;;22.11;53.35;99086.19;6065468;23;6779;-76
2023/10/14 00:04:04;;;;;;;;;;;;;;;21.95;54.14;99081.28;6091998;23;6775;-74
2023/10/14 00:06:34;;;;;;;;;;;;;;;21.77;54.88;99070.31;6065240;23;7093;-77
2023/10/14 00:09:01;;;;;;;;;;;;;;;21.65;55.35;99078.34;6090729;23;6782;-76
2023/10/14 00:11:35;;;;;;;;;;;;;;;21.55;56.20;99088.06;6065708;23;7704;-77
2023/10/14 00:14:10;;;;;;;;;;;;;;;21.48;56.28;99092.53;6067850;23;7240;-77
2023/10/14 00:16:36;;;;;;;;;;;;;;;21.43;56.24;99089.16;6066916;23;7232;-76
2023/10/14 00:19:09;;;;;;;;;;;;;;;21.42;56.43;99095.25;6040351;23;7164;-75
2023/10/14 00:21:36;;;;;;;;;;;;;;;21.43;56.70;99096.97;6066660;23;6779;-77
2023/10/14 00:24:06;;;;;;;;;;;;;;;21.47;57.10;99095.16;6066378;23;6843;-77
2023/10/14 00:26:34;;;;;;;;;;;;;;;21.49;57.29;99099.47;6065407;23;7392;-74
2023/10/14 00:29:21;;;;;;;;;;;;;;;21.53;57.29;99097.69;6091364;23;6855;-75
2023/10/14 00:31:51;;;;;;;;;;;;;;;21.59;57.41;99100.19;6068054;23;6783;-78
2023/10/14 00:34:22;;;;;;;;;;;;;;;21.63;57.03;99090.53;6042081;23;6982;-78
2023/10/14 00:36:49;;;;;;;;;;;;;;;21.67;57.17;99092.25;6040257;23;7330;-75
2023/10/14 00:39:22;;;;;;;;;;;;;;;21.72;57.11;99100.81;6066923;23;6974;-74
2023/10/14 00:41:52;;;;;;;;;;;;;;;21.75;57.11;99105.13;6083906;23;8407;-73
2023/10/14 00:44:20;;;;;;;;;;;;;;;21.72;57.09;99107.81;6084938;23;6835;-74
2023/10/14 00:46:49;;;;;;;;;;;;;;;21.66;57.61;99106.13;6081659;23;6771;-74
2023/10/14 00:49:18;;;;;;;;;;;;;;;21.61;57.43;99111.44;6085115;23;6783;-73
2023/10/14 00:51:49;;;;;;;;;;;;;;;21.57;57.20;99109.75;6056942;23;7116;-74
2023/10/14 00:59:49;;;;;;;;;;;;;;;21.37;57.78;99144.00;6091738;23;6767;-74
2023/10/14 01:02:18;;;;;;;;;;;;;;;21.29;57.85;99136.28;6071861;23;6966;-73
2023/10/14 01:04:51;;;;;;;;;;;;;;;21.20;58.15;99141.69;6070909;23;6849;-73
2023/10/14 01:07:17;;;;;;;;;;;;;;;21.08;58.03;99145.31;6072225;23;6775;-73
2023/10/14 01:12:28;;;;;;;;;;;;;;;20.87;58.88;99129.13;6071535;23;6771;-73
2023/10/14 01:14:59;;;;;;;;;;;;;;;20.77;58.77;99127.53;6074239;23;6843;-74
2023/10/14 01:17:32;;;;;;;;;;;;;;;20.70;59.18;99120.69;6069767;23;6890;-72
2023/10/14 01:22:41;;;;;;;;;;;;;;;20.57;59.85;99117.38;6082948;23;6763;-73
2023/10/14 01:25:12;;;;;;;;;;;;;;;20.52;59.63;99114.84;6070046;23;6783;-73
2023/10/14 01:27:42;;;;;;;;;;;;;;;20.49;60.12;99120.94;6048114;23;7308;-73
2023/10/14 01:30:10;;;;;;;;;;;;;;;20.44;60.18;99116.69;6072134;23;7117;-74
2023/10/14 01:35:13;;;;;;;;;;;;;;;20.40;60.33;99154.88;6074922;23;6752;-73
2023/10/14 01:37:40;;;;;;;;;;;;;;;20.38;60.35;99180.06;6076107;23;6978;-74
2023/10/14 01:40:48;;;;;;;;;;;;;;;20.40;60.74;99199.13;6073343;23;6970;-73
2023/10/14 01:43:05;;;;;;;;;;;;;;;20.39;60.51;99221.69;6067868;23;6787;-75
2023/10/14 01:45:39;;;;;;;;;;;;;;;20.36;60.52;99228.66;6066743;23;6779;-74
2023/10/14 01:50:38;;;;;;;;;;;;;;;20.06;59.77;99261.91;6076046;23;6775;-76
2023/10/14 01:53:11;;;;;;;;;;;;;;;19.76;59.41;99269.91;6064589;23;6851;-75
2023/10/14 01:55:41;;;;;;;;;;;;;;;19.47;59.18;99285.72;6040838;23;7122;-77
2023/10/14 01:58:13;;;;;;;;;;;;;;;19.23;59.80;99301.44;6064215;23;7798;-76
2023/10/14 02:00:39;;;;;;;;;;;;;;;18.99;59.40;99298.03;6064102;23;6813;-77
2023/10/14 02:03:07;;;;;;;;;;;;;;;18.81;59.43;99293.81;6089612;23;7281;-77
2023/10/14 02:05:40;;;;;;;;;;;;;;;18.66;60.32;99314.59;6064419;23;6783;-76
2023/10/14 02:08:15;;;;;;;;;;;;;;;18.53;60.67;99334.50;6064687;23;6779;-77
2023/10/14 02:10:54;;;;;;;;;;;;;;;18.42;60.40;99338.00;6064039;23;6971;-75
2023/10/14 02:13:21;;;;;;;;;;;;;;;18.32;60.45;99349.25;6065740;23;8088;-76
2023/10/14 02:15:48;;;;;;;;;;;;;;;18.26;60.82;99362.22;6064419;23;6771;-75
2023/10/14 02:18:22;;;;;;;;;;;;;;;18.20;61.25;99367.41;6065451;23;7378;-76
2023/10/14 02:20:56;;;;;;;;;;;;;;;18.15;61.15;99367.41;6063785;23;7949;-75
2023/10/14 02:23:44;;;;;;;;;;;;;;;18.12;61.58;99370.84;6063530;23;6954;-76
2023/10/14 02:26:25;;;;;;;;;;;;;;;18.09;61.86;99381.22;6068529;23;6915;-75
2023/10/14 02:28:53;;;;;;;;;;;;;;;18.08;61.51;99395.06;6066027;23;6795;-76
2023/10/14 02:31:29;;;;;;;;;;;;;;;18.09;61.60;99398.50;6089338;23;6906;-75
2023/10/14 02:34:04;;;;;;;;;;;;;;;18.08;61.79;99402.84;6065071;23;6843;-75
2023/10/14 02:36:34;;;;;;;;;;;;;;;18.10;62.07;99414.06;6065817;23;7609;-74
2023/10/14 02:39:00;;;;;;;;;;;;;;;18.10;62.04;99416.66;6065166;23;6843;-75
2023/10/14 02:41:26;;;;;;;;;;;;;;;18.12;61.81;99424.44;6088388;23;6767;-76
2023/10/14 02:44:20;;;;;;;;;;;;;;;18.11;62.23;99430.50;6062616;23;7372;-75
2023/10/14 02:46:46;;;;;;;;;;;;;;;18.13;62.50;99447.78;6069025;23;6771;-76
2023/10/14 02:49:18;;;;;;;;;;;;;;;18.12;62.14;99453.81;6063860;23;7616;-76
2023/10/14 02:51:45;;;;;;;;;;;;;;;18.11;62.63;99462.47;6062476;23;6779;-77
2023/10/14 02:54:15;;;;;;;;;;;;;;;18.12;62.99;99478.91;6064917;23;6771;-76
2023/10/14 02:59:20;;;;;;;;;;;;;;;18.12;62.94;99495.31;6076414;23;6771;-74
2023/10/14 03:04:40;;;;;;;;;;;;;;;18.09;62.36;99521.25;6068351;23;7153;-72
2023/10/14 03:07:09;;;;;;;;;;;;;;;18.05;62.65;99540.22;6065456;23;7238;-73
2023/10/14 03:09:35;;;;;;;;;;;;;;;18.04;63.11;99546.28;6065535;23;6847;-72
2023/10/14 03:12:01;;;;;;;;;;;;;;;18.00;62.17;99563.50;6064587;23;6767;-72
2023/10/14 03:14:28;;;;;;;;;;;;;;;17.96;62.73;99572.13;6064226;23;7169;-72
2023/10/14 03:16:54;;;;;;;;;;;;;;;17.91;62.48;99573.84;6062895;23;7295;-72
2023/10/14 03:19:20;;;;;;;;;;;;;;;17.86;62.50;99573.81;6065224;23;7384;-72
2023/10/14 03:22:00;;;;;;;;;;;;;;;17.82;62.42;99582.44;6062691;23;6759;-72
2023/10/14 03:24:30;;;;;;;;;;;;;;;17.77;62.69;99586.75;6044536;23;7420;-72
2023/10/14 03:27:04;;;;;;;;;;;;;;;17.72;62.71;99589.31;6066188;23;6996;-72
2023/10/14 03:29:31;;;;;;;;;;;;;;;17.70;62.40;99608.28;6043039;23;7395;-72
2023/10/14 03:31:57;;;;;;;;;;;;;;;17.70;62.76;99618.66;6064970;23;6807;-72
2023/10/14 03:34:30;;;;;;;;;;;;;;;17.73;63.05;99639.41;6066754;23;7108;-72
2023/10/14 03:37:00;;;;;;;;;;;;;;;17.73;62.87;99653.25;6065692;23;8811;-72
2023/10/14 03:39:40;;;;;;;;;;;;;;;17.70;62.25;99658.38;6067187;23;8120;-72
2023/10/14 03:42:16;;;;;;;;;;;;;;;17.61;61.53;99672.16;6089603;23;7099;-72
2023/10/14 03:44:42;;;;;;;;;;;;;;;17.48;61.88;99684.13;6065137;23;6978;-72
2023/10/14 03:47:17;;;;;;;;;;;;;;;17.33;61.89;99681.41;6065993;23;6775;-72
2023/10/14 03:49:43;;;;;;;;;;;;;;;17.18;61.32;99689.91;6066017;23;6779;-72
2023/10/14 03:52:12;;;;;;;;;;;;;;;17.03;61.48;99693.22;6065317;23;7616;-72
2023/10/14 03:54:42;;;;;;;;;;;;;;;16.89;61.84;99690.44;6066677;23;6955;-72
2023/10/14 03:57:17;;;;;;;;;;;;;;;16.76;61.64;99698.09;6066386;23;6771;-73
2023/10/14 03:59:46;;;;;;;;;;;;;;;16.69;62.12;99706.63;6091130;23;6839;-72
2023/10/14 04:02:19;;;;;;;;;;;;;;;16.62;61.78;99705.69;6065963;23;6847;-73
2023/10/14 04:04:45;;;;;;;;;;;;;;;16.61;62.41;99718.59;6067116;23;6820;-72
2023/10/14 04:09:44;;;;;;;;;;;;;;;16.61;62.36;99727.22;6066589;23;6811;-72
2023/10/14 04:12:22;;;;;;;;;;;;;;;16.63;62.44;99724.66;6076317;23;6837;-73
2023/10/14 04:14:54;;;;;;;;;;;;;;;16.68;62.45;99745.44;6061470;23;6977;-72
2023/10/14 04:17:30;;;;;;;;;;;;;;;16.70;62.22;99756.66;6102260;23;6779;-73
2023/10/14 04:22:41;;;;;;;;;;;;;;;16.74;62.43;99766.19;6086012;23;6767;-74
2023/10/14 04:31:06;;;;;;;;;;;;;;;16.80;62.46;99787.84;6096290;23;6898;-73
2023/10/14 04:33:34;;;;;;;;;;;;;;;16.78;62.41;99786.09;6074126;23;6787;-74
2023/10/14 04:38:38;;;;;;;;;;;;;;;16.68;62.09;99808.38;6104337;23;6974;-73
2023/10/14 04:41:12;;;;;;;;;;;;;;;16.61;61.65;99811.72;6096083;23;6839;-74
2023/10/14 04:43:54;;;;;;;;;;;;;;;16.54;61.74;99825.44;6072430;23;7525;-73
2023/10/14 04:46:32;;;;;;;;;;;;;;;16.45;62.11;99827.03;6095849;23;6799;-74
2023/10/14 04:49:08;;;;;;;;;;;;;;;16.40;61.84;99833.00;6076782;23;6843;-74
2023/10/14 04:51:45;;;;;;;;;;;;;;;16.33;61.85;99839.78;6098084;23;6946;-74
2023/10/14 04:54:16;;;;;;;;;;;;;;;16.27;61.87;99847.44;6098523;23;6944;-75
2023/10/14 04:56:45;;;;;;;;;;;;;;;16.19;62.09;99845.59;6096883;23;6779;-75
2023/10/14 04:59:12;;;;;;;;;;;;;;;16.12;61.79;99859.25;6094332;23;7146;-75
2023/10/14 05:01:42;;;;;;;;;;;;;;;16.05;62.22;99860.03;6094522;23;6794;-73
2023/10/14 05:04:08;;;;;;;;;;;;;;;15.99;61.83;99870.25;6098558;23;6987;-74
2023/10/14 05:06:40;;;;;;;;;;;;;;;15.92;61.94;99875.28;6076159;23;6783;-74
2023/10/14 05:09:09;;;;;;;;;;;;;;;15.84;61.88;99887.19;6097103;23;6775;-74
2023/10/14 05:11:36;;;;;;;;;;;;;;;15.76;62.11;99888.78;6099934;23;6779;-74
2023/10/14 05:14:08;;;;;;;;;;;;;;;15.67;61.67;99892.91;6102019;23;6945;-74
2023/10/14 05:16:57;;;;;;;;;;;;;;;15.60;61.93;99906.53;6080439;23;6981;-76
2023/10/14 05:19:25;;;;;;;;;;;;;;;15.51;62.22;99911.53;6059219;23;7227;-75
2023/10/14 05:22:03;;;;;;;;;;;;;;;15.44;62.00;99915.72;6094244;23;6897;-79
2023/10/14 05:24:29;;;;;;;;;;;;;;;15.38;62.00;99918.16;6066625;23;7014;-79
2023/10/14 05:26:59;;;;;;;;;;;;;;;15.31;61.85;99917.16;6088960;23;6766;-79
2023/10/14 05:29:26;;;;;;;;;;;;;;;15.26;61.67;99929.13;6064378;23;7004;-80
2023/10/14 05:31:52;;;;;;;;;;;;;;;15.19;61.73;99932.41;6065855;23;6964;-80
2023/10/14 05:34:25;;;;;;;;;;;;;;;15.12;62.03;99929.66;6058344;23;7144;-80
2023/10/14 05:36:57;;;;;;;;;;;;;;;15.07;62.11;99941.63;6057755;23;6767;-79
2023/10/14 05:39:24;;;;;;;;;;;;;;;15.03;62.23;99941.53;6058008;23;6775;-79
2023/10/14 05:41:58;;;;;;;;;;;;;;;14.97;61.57;99937.94;6058355;23;6989;-79
2023/10/14 05:44:27;;;;;;;;;;;;;;;14.93;61.98;99943.00;6059313;23;7185;-79
2023/10/14 05:46:54;;;;;;;;;;;;;;;14.89;61.79;99957.53;6059037;23;6772;-80
2023/10/14 05:49:24;;;;;;;;;;;;;;;14.83;62.39;99958.28;6059068;23;6775;-80
2023/10/14 05:51:53;;;;;;;;;;;;;;;14.83;62.65;99970.31;6059176;23;6771;-79
2023/10/14 05:54:22;;;;;;;;;;;;;;;14.78;62.29;99970.22;6060298;23;6771;-79
2023/10/14 05:56:51;;;;;;;;;;;;;;;14.75;62.35;99970.09;6058420;23;6902;-79
2023/10/14 05:59:17;;;;;;;;;;;;;;;14.74;62.22;99975.25;6035361;23;7327;-79
2023/10/14 06:01:46;;;;;;;;;;;;;;;14.72;62.44;99982.91;6070072;23;6771;-76
2023/10/14 06:04:15;;;;;;;;;;;;;;;14.70;62.74;99992.31;6058991;23;6771;-79
2023/10/14 06:06:43;;;;;;;;;;;;;;;14.68;62.04;99992.28;6034312;23;6962;-79
2023/10/14 06:09:10;;;;;;;;;;;;;;;14.66;62.09;100001.69;6059344;23;6771;-78
2023/10/14 06:11:36;;;;;;;;;;;;;;;14.64;62.44;100010.22;6059551;23;6775;-75
2023/10/14 06:14:02;;;;;;;;;;;;;;;14.62;62.25;100017.06;6048521;23;7148;-77
2023/10/14 06:16:32;;;;;;;;;;;;;;;14.59;62.44;100015.25;6006591;23;7204;-76
2023/10/14 06:18:59;;;;;;;;;;;;;;;14.57;62.86;100029.81;6029799;23;7079;-77
2023/10/14 06:21:28;;;;;;;;;;;;;;;14.56;62.04;100031.53;6032182;23;6783;-76
2023/10/14 06:23:54;;;;;;;;;;;;;;;14.52;62.63;100027.13;6029899;23;7121;-76
2023/10/14 06:26:19;;;;;;;;;;;;;;;14.49;62.40;100028.75;6030527;23;7078;-77
2023/10/14 06:28:46;;;;;;;;;;;;;;;14.47;62.60;100036.44;6030756;23;7228;-76
2023/10/14 06:31:12;;;;;;;;;;;;;;;14.46;62.29;100047.59;6031098;23;7429;-71
2023/10/14 06:33:40;;;;;;;;;;;;;;;14.45;62.87;100048.41;6032164;23;6968;-72
2023/10/14 06:36:10;;;;;;;;;;;;;;;14.46;62.48;100051.88;6031248;23;6926;-71
2023/10/14 06:38:37;;;;;;;;;;;;;;;14.46;62.62;100055.31;6031643;23;7007;-71
2023/10/14 06:41:03;;;;;;;;;;;;;;;14.45;62.92;100061.31;6030098;23;6775;-70
2023/10/14 06:43:28;;;;;;;;;;;;;;;14.44;62.49;100068.19;6031439;23;6759;-73
2023/10/14 06:45:54;;;;;;;;;;;;;;;14.44;62.31;100072.47;6033048;23;6767;-73
2023/10/14 06:48:20;;;;;;;;;;;;;;;14.44;62.58;100072.47;6031456;23;6801;-71
2023/10/14 06:50:49;;;;;;;;;;;;;;;14.44;62.21;100072.47;6033545;23;6919;-71
2023/10/14 06:53:18;;;;;;;;;;;;;;;14.44;63.43;100087.94;6028515;23;6984;-71
2023/10/14 06:55:44;;;;;;;;;;;;;;;14.44;62.53;100087.94;6053831;23;6910;-71
2023/10/14 06:58:19;;;;;;;;;;;;;;;14.44;62.11;100095.66;6031092;23;6779;-71
2023/10/14 07:00:46;;;;;;;;;;;;;;;14.45;62.38;100100.00;6034239;23;6929;-73
2023/10/14 07:03:15;;;;;;;;;;;;;;;14.45;63.22;100100.00;6043354;23;6771;-74
2023/10/14 07:08:21;;;;;;;;;;;;;;;14.48;63.30;100112.97;6053499;23;6828;-73
2023/10/14 07:10:50;;;;;;;;;;;;;;;14.50;63.09;100118.16;6044869;23;6967;-73
2023/10/14 07:13:23;;;;;;;;;;;;;;;14.52;62.72;100119.97;6046783;23;6847;-73
2023/10/14 07:15:51;;;;;;;;;;;;;;;14.55;62.92;100127.78;6103189;23;6929;-75
2023/10/14 07:18:23;;;;;;;;;;;;;;;14.58;62.75;100134.72;6065776;23;6788;-77
2023/10/14 07:21:03;;;;;;;;;;;;;;;14.61;63.18;100131.38;6073877;23;7018;-75
2023/10/14 07:23:34;;;;;;;;;;;;;;;14.62;62.63;100138.25;6080905;23;7361;-74
2023/10/14 07:26:12;;;;;;;;;;;;;;;14.64;63.03;100141.75;6081091;23;6779;-74
2023/10/14 07:28:42;;;;;;;;;;;;;;;14.64;63.21;100144.34;6100378;23;6965;-75
2023/10/14 07:31:10;;;;;;;;;;;;;;;14.66;62.82;100142.66;6076737;23;6787;-73
2023/10/14 07:33:38;;;;;;;;;;;;;;;14.67;63.01;100152.16;6051331;23;7037;-75
2023/10/14 07:36:07;;;;;;;;;;;;;;;14.70;63.15;100160.00;6076861;23;6989;-77
2023/10/14 07:38:36;;;;;;;;;;;;;;;14.72;62.86;100163.47;6074240;23;6921;-76
2023/10/14 07:41:03;;;;;;;;;;;;;;;14.72;62.68;100169.53;6069783;23;7313;-78
2023/10/14 07:43:29;;;;;;;;;;;;;;;14.73;62.83;100178.16;6064578;23;6918;-72
2023/10/14 07:45:54;;;;;;;;;;;;;;;14.73;62.07;100180.72;6064432;23;6839;-72
2023/10/14 07:48:20;;;;;;;;;;;;;;;14.72;62.62;100179.84;6064704;23;6755;-72
2023/10/14 07:50:48;;;;;;;;;;;;;;;14.75;62.63;100191.09;6064112;23;6755;-72
2023/10/14 07:53:15;;;;;;;;;;;;;;;14.77;62.90;100179.97;6065083;23;6775;-72
2023/10/14 07:55:49;;;;;;;;;;;;;;;14.79;62.73;100188.66;6063941;23;6775;-74
2023/10/14 08:00:50;;;;;;;;;;;;;;;14.87;63.03;100201.75;6135357;23;6752;-73
2023/10/14 08:03:20;;;;;;;;;;;;;;;14.91;62.99;100197.56;6117679;23;6842;-73
2023/10/14 08:05:49;;;;;;;;;;;;;;;14.94;62.63;100211.41;6116777;23;7031;-73
2023/10/14 08:08:17;;;;;;;;;;;;;;;14.98;62.83;100214.94;6116744;23;6962;-73
2023/10/14 08:10:45;;;;;;;;;;;;;;;15.03;63.29;100221.09;6115338;23;7555;-73
2023/10/14 08:13:13;;;;;;;;;;;;;;;15.09;63.12;100218.69;6092947;23;7160;-74
2023/10/14 08:15:42;;;;;;;;;;;;;;;15.14;62.67;100224.84;6118721;23;6822;-72
2023/10/14 08:18:08;;;;;;;;;;;;;;;15.24;63.17;100238.88;6139944;23;8370;-73
2023/10/14 08:20:35;;;;;;;;;;;;;;;15.28;62.47;100232.94;6118438;23;7113;-73
2023/10/14 08:23:09;;;;;;;;;;;;;;;15.33;62.90;100240.81;6142857;23;7239;-73
2023/10/14 08:25:41;;;;;;;;;;;;;;;15.40;62.08;100249.56;6138589;23;6767;-72
2023/10/14 08:28:08;;;;;;;;;;;;;;;15.43;62.86;100246.22;6142315;23;6803;-73
2023/10/14 08:30:45;;;;;;;;;;;;;;;15.48;62.47;100250.66;6092011;23;7363;-73
2023/10/14 08:33:16;;;;;;;;;;;;;;;15.51;61.94;100247.28;6119170;23;6934;-72
2023/10/14 08:35:42;;;;;;;;;;;;;;;15.56;62.09;100256.03;6141368;23;7330;-74
2023/10/14 08:38:11;;;;;;;;;;;;;;;15.61;62.48;100259.59;6118996;23;6774;-73
2023/10/14 08:40:39;;;;;;;;;;;;;;;15.66;62.25;100258.00;6118617;23;6779;-73
2023/10/14 08:43:10;;;;;;;;;;;;;;;15.71;62.00;100263.28;6141822;23;6973;-73
2023/10/14 08:45:39;;;;;;;;;;;;;;;15.77;61.94;100270.31;6117146;23;7212;-73
2023/10/14 08:48:08;;;;;;;;;;;;;;;15.83;61.81;100275.63;6117664;23;8094;-73
2023/10/14 08:50:36;;;;;;;;;;;;;;;15.87;61.91;100268.81;6140511;23;6775;-74
2023/10/14 08:53:05;;;;;;;;;;;;;;;15.93;61.93;100269.91;6116939;23;6779;-80
2023/10/14 08:55:38;;;;;;;;;;;;;;;16.01;61.53;100279.53;6118031;23;7256;-76
2023/10/14 08:58:06;;;;;;;;;;;;;;;16.07;61.31;100280.53;6110819;23;6850;-76
2023/10/14 09:00:36;;;;;;;;;;;;;;;16.15;61.54;100288.50;6086281;23;6940;-75
2023/10/14 09:03:09;;;;;;;;;;;;;;;16.28;61.45;100281.91;6089095;23;6763;-75
2023/10/14 09:05:39;;;;;;;;;;;;;;;16.41;61.18;100284.75;6065476;23;8072;-78
2023/10/14 09:08:11;;;;;;;;;;;;;;;16.50;60.96;100280.63;6089605;23;7200;-79
2023/10/14 09:10:38;;;;;;;;;;;;;;;16.58;60.11;100286.00;6088499;23;6771;-78
2023/10/14 09:13:08;;;;;;;;;;;;;;;16.61;60.21;100287.75;6064197;23;6910;-75
2023/10/14 09:15:40;;;;;;;;;;;;;;;16.63;59.52;100291.25;6064122;23;7005;-75
2023/10/14 09:18:28;;;;;;;;;;;;;;;16.62;59.60;100292.13;6084086;23;6878;-77
2023/10/14 09:21:00;;;;;;;;;;;;;;;16.60;59.18;100302.41;6040531;23;7221;-77
2023/10/14 09:23:29;;;;;;;;;;;;;;;16.58;59.09;100296.34;6063839;23;7143;-77
2023/10/14 09:25:58;;;;;;;;;;;;;;;16.56;58.68;100299.72;6060783;23;7077;-76
2023/10/14 09:28:32;;;;;;;;;;;;;;;16.54;58.52;100302.28;6064782;23;6779;-77
2023/10/14 09:31:02;;;;;;;;;;;;;;;16.57;58.58;100291.13;6062814;23;6830;-77
2023/10/14 09:33:43;;;;;;;;;;;;;;;16.59;58.27;100295.50;6061862;23;6783;-77
2023/10/14 09:36:20;;;;;;;;;;;;;;;16.64;58.39;100296.44;6051560;23;7471;-76
2023/10/14 09:38:51;;;;;;;;;;;;;;;16.71;57.62;100300.06;6067102;23;6956;-76
2023/10/14 09:41:17;;;;;;;;;;;;;;;16.74;57.90;100297.53;6039291;23;6972;-75
2023/10/14 09:43:45;;;;;;;;;;;;;;;16.79;57.61;100298.50;6087496;23;6779;-75
2023/10/14 09:46:15;;;;;;;;;;;;;;;16.88;57.26;100302.13;6063794;23;6954;-75
2023/10/14 09:48:43;;;;;;;;;;;;;;;16.95;56.92;100301.41;6063745;23;6821;-76
2023/10/14 09:51:12;;;;;;;;;;;;;;;17.04;56.51;100296.44;6083696;23;6994;-77
2023/10/14 09:53:38;;;;;;;;;;;;;;;17.12;55.95;100303.50;6088082;23;6922;-76
2023/10/14 09:56:12;;;;;;;;;;;;;;;17.23;55.24;100306.28;6038022;23;8489;-76
2023/10/14 09:58:46;;;;;;;;;;;;;;;17.41;55.53;100309.22;6063331;23;6783;-76
2023/10/14 10:01:14;;;;;;;;;;;;;;;17.75;55.50;100312.41;6062518;23;6959;-76
2023/10/14 10:04:05;;;;;;;;;;;;;;;18.71;55.51;100319.94;6062491;23;6779;-75
2023/10/14 10:06:57;;;;;;;;;;;;;;;19.98;52.80;100317.84;6064721;23;6783;-76
2023/10/14 10:10:10;;;;;;;;;;;;;;;21.08;50.33;100325.44;6067265;23;6799;-76
2023/10/14 10:12:38;;;;;;;;;;;;;;;21.52;48.47;100321.19;6089394;23;6782;-76
2023/10/14 10:15:09;;;;;;;;;;;;;;;21.39;46.79;100317.69;6064530;23;7472;-76
2023/10/14 10:17:37;;;;;;;;;;;;;;;21.07;47.08;100331.53;6061311;23;6779;-76
2023/10/14 10:20:09;;;;;;;;;;;;;;;20.80;46.81;100330.50;6088443;23;6775;-76
2023/10/14 10:22:52;;;;;;;;;;;;;;;20.42;46.77;100331.16;6089802;23;6771;-76
2023/10/14 10:25:50;;;;;;;;;;;;;;;20.21;46.85;100337.97;6088740;23;8168;-77
2023/10/14 10:28:27;;;;;;;;;;;;;;;20.25;46.95;100335.41;6087713;23;6991;-76
2023/10/14 10:31:09;;;;;;;;;;;;;;;20.20;46.49;100333.63;6078661;23;6843;-78
2023/10/14 10:33:59;;;;;;;;;;;;;;;20.17;46.56;100339.66;6034610;23;7035;-76
2023/10/14 10:36:28;;;;;;;;;;;;;;;20.59;47.18;100345.16;6034135;23;6795;-76
2023/10/14 10:39:05;;;;;;;;;;;;;;;21.42;46.29;100337.69;6060246;23;6931;-77
2023/10/14 10:41:36;;;;;;;;;;;;;;;22.40;44.88;100335.09;6059088;23;6930;-76
2023/10/14 10:44:05;;;;;;;;;;;;;;;23.28;43.18;100336.59;6035611;23;6851;-76
2023/10/14 10:46:50;;;;;;;;;;;;;;;24.20;42.41;100322.84;6033761;23;6966;-75
2023/10/14 10:49:53;;;;;;;;;;;;;;;25.23;40.40;100331.25;6012284;23;6941;-76
2023/10/14 10:52:21;;;;;;;;;;;;;;;26.08;38.15;100333.50;6035364;23;6767;-78
2023/10/14 10:54:47;;;;;;;;;;;;;;;26.31;36.59;100334.84;6011579;23;7121;-77
2023/10/14 10:57:13;;;;;;;;;;;;;;;26.74;35.87;100325.28;6028974;23;6771;-76
2023/10/14 10:59:40;;;;;;;;;;;;;;;27.35;35.25;100324.84;6028972;23;6779;-77
2023/10/14 11:02:11;;;;;;;;;;;;;;;28.03;34.32;100310.97;6029622;23;6975;-77
2023/10/14 11:04:42;;;;;;;;;;;;;;;28.53;33.80;100332.47;6030214;23;6779;-76
2023/10/14 11:07:12;;;;;;;;;;;;;;;28.92;33.95;100312.94;6053224;23;7010;-77
2023/10/14 11:09:41;;;;;;;;;;;;;;;29.22;32.97;100319.97;6028834;23;7863;-78
2023/10/14 11:12:13;;;;;;;;;;;;;;;28.69;32.63;100332.91;6054574;23;7826;-77
2023/10/14 11:14:39;;;;;;;;;;;;;;;27.87;33.30;100337.72;6053601;23;6939;-77
2023/10/14 11:17:06;;;;;;;;;;;;;;;27.81;33.39;100333.44;6033195;23;6771;-76
2023/10/14 11:19:33;;;;;;;;;;;;;;;28.21;33.23;100328.09;6033268;23;6986;-77
2023/10/14 11:22:01;;;;;;;;;;;;;;;28.81;32.48;100330.81;6054044;23;7239;-78
2023/10/14 11:24:30;;;;;;;;;;;;;;;29.22;31.47;100331.38;6006624;23;6986;-78
2023/10/14 11:26:57;;;;;;;;;;;;;;;29.65;30.36;100331.81;6053139;23;6771;-77
2023/10/14 11:29:27;;;;;;;;;;;;;;;30.15;29.60;100326.69;6030696;23;6775;-76
2023/10/14 11:31:56;;;;;;;;;;;;;;;30.40;27.73;100331.94;6054671;23;6787;-76
2023/10/14 11:34:23;;;;;;;;;;;;;;;29.61;27.64;100337.22;6031148;23;6771;-78
2023/10/14 11:36:49;;;;;;;;;;;;;;;28.53;28.11;100336.88;6033073;23;7253;-77
2023/10/14 11:39:19;;;;;;;;;;;;;;;27.53;28.46;100325.31;6007447;23;6825;-76
2023/10/14 11:41:50;;;;;;;;;;;;;;;27.29;28.98;100338.16;6031385;23;6975;-76
2023/10/14 11:44:19;;;;;;;;;;;;;;;27.20;28.69;100331.34;6031085;23;6979;-77
2023/10/14 11:46:46;;;;;;;;;;;;;;;26.77;28.46;100340.97;6006226;23;7150;-77
2023/10/14 11:49:15;;;;;;;;;;;;;;;26.16;29.69;100341.22;6008141;23;6998;-76
2023/10/14 11:51:42;;;;;;;;;;;;;;;26.06;30.37;100345.75;6033095;23;6783;-75
2023/10/14 11:54:13;;;;;;;;;;;;;;;26.23;30.31;100342.00;6032801;23;6917;-76
2023/10/14 11:56:40;;;;;;;;;;;;;;;26.54;30.22;100337.06;6034186;23;7014;-76
2023/10/14 11:59:06;;;;;;;;;;;;;;;26.80;30.25;100337.44;6032381;23;6779;-76
2023/10/14 12:01:34;;;;;;;;;;;;;;;26.84;30.25;100344.34;6035074;23;7013;-76
2023/10/14 12:04:02;;;;;;;;;;;;;;;26.82;30.23;100340.88;6060861;23;8146;-76
2023/10/14 12:06:30;;;;;;;;;;;;;;;26.72;29.78;100343.69;6036713;23;7205;-75
2023/10/14 12:08:57;;;;;;;;;;;;;;;26.44;29.80;100343.38;6061299;23;6771;-76
2023/10/14 12:11:22;;;;;;;;;;;;;;;25.78;30.40;100349.72;6036076;23;6965;-75
2023/10/14 12:13:48;;;;;;;;;;;;;;;24.92;30.42;100355.25;6012585;23;7405;-75
2023/10/14 12:16:15;;;;;;;;;;;;;;;24.03;31.08;100354.38;6035702;23;6771;-75
2023/10/14 12:18:42;;;;;;;;;;;;;;;23.26;31.67;100357.50;6035254;23;7368;-76
2023/10/14 12:21:08;;;;;;;;;;;;;;;22.59;32.50;100362.09;6013869;23;7149;-73
2023/10/14 12:23:34;;;;;;;;;;;;;;;22.04;32.80;100364.75;6062426;23;6775;-72
2023/10/14 12:26:02;;;;;;;;;;;;;;;21.57;33.48;100368.13;6036605;23;7783;-71
2023/10/14 12:28:30;;;;;;;;;;;;;;;21.23;34.09;100361.09;6013185;23;6956;-73
2023/10/14 12:31:09;;;;;;;;;;;;;;;20.99;34.65;100377.50;6050256;23;8645;-72
2023/10/14 12:33:35;;;;;;;;;;;;;;;20.82;34.36;100378.28;6066440;23;7010;-73
2023/10/14 12:36:09;;;;;;;;;;;;;;;20.61;34.84;100379.88;6090166;23;6770;-72
2023/10/14 12:38:36;;;;;;;;;;;;;;;20.43;34.95;100378.03;6087848;23;6778;-72
2023/10/14 12:41:05;;;;;;;;;;;;;;;20.30;35.23;100379.66;6089153;23;6839;-73
2023/10/14 12:43:37;;;;;;;;;;;;;;;20.26;35.73;100373.56;6065288;23;6885;-72
2023/10/14 12:46:12;;;;;;;;;;;;;;;20.35;35.86;100375.34;6088342;23;7186;-72
2023/10/14 12:48:45;;;;;;;;;;;;;;;20.46;35.63;100379.75;6065866;23;6976;-73
2023/10/14 12:51:21;;;;;;;;;;;;;;;20.50;35.97;100376.34;6088969;23;7113;-73
2023/10/14 12:53:47;;;;;;;;;;;;;;;20.52;35.98;100379.81;6088966;23;7013;-73
2023/10/14 12:56:22;;;;;;;;;;;;;;;20.55;36.12;100385.03;6088426;23;6779;-73
2023/10/14 12:58:48;;;;;;;;;;;;;;;20.54;36.04;100384.19;6087860;23;6774;-72
2023/10/14 13:01:17;;;;;;;;;;;;;;;20.51;36.11;100385.88;6087695;23;6929;-72
2023/10/14 13:03:51;;;;;;;;;;;;;;;20.47;36.24;100392.78;6089578;23;7303;-73
2023/10/14 13:06:22;;;;;;;;;;;;;;;20.45;36.63;100399.72;6065398;23;6955;-73
2023/10/14 13:09:00;;;;;;;;;;;;;;;20.42;36.42;100407.50;6088458;23;6779;-73
2023/10/14 13:11:30;;;;;;;;;;;;;;;20.35;36.97;100403.13;6087551;23;6950;-73
2023/10/14 13:13:56;;;;;;;;;;;;;;;20.29;37.40;100409.16;6062766;23;6963;-73
2023/10/14 13:16:26;;;;;;;;;;;;;;;20.24;37.42;100408.22;6086843;23;7021;-73
2023/10/14 13:18:56;;;;;;;;;;;;;;;20.18;37.84;100415.97;6086770;23;7306;-73
2023/10/14 13:21:31;;;;;;;;;;;;;;;20.09;37.29;100416.78;6087718;23;7223;-74
2023/10/14 13:23:57;;;;;;;;;;;;;;;20.00;37.91;100428.00;6089483;23;6839;-74
2023/10/14 13:26:23;;;;;;;;;;;;;;;19.96;37.74;100415.78;6089199;23;6959;-73
2023/10/14 13:28:52;;;;;;;;;;;;;;;19.95;38.11;100424.47;6064899;23;7075;-73
2023/10/14 13:31:20;;;;;;;;;;;;;;;19.95;38.03;100432.25;6086472;23;6962;-74
2023/10/14 13:33:47;;;;;;;;;;;;;;;20.00;37.70;100433.19;6089376;23;6782;-76
2023/10/14 13:36:17;;;;;;;;;;;;;;;20.02;37.98;100435.78;6087341;23;6781;-77
2023/10/14 13:38:43;;;;;;;;;;;;;;;20.00;37.44;100432.31;6064690;23;6967;-76
2023/10/14 13:41:14;;;;;;;;;;;;;;;19.88;37.40;100439.09;6089397;23;6842;-76
2023/10/14 13:43:44;;;;;;;;;;;;;;;19.73;37.69;100437.22;6089114;23;7639;-76
2023/10/14 13:46:09;;;;;;;;;;;;;;;19.62;37.95;100437.09;6065516;23;6961;-75
2023/10/14 13:48:36;;;;;;;;;;;;;;;19.55;38.23;100436.16;6065774;23;6959;-76